Airfield :
LOGIN :

Register | Disclaimer

   EN    FR    IT 

 










Legend :    VFR   Marginal VFR   IFR   Intensive IFR   Very Intensive IFR
Visi :
Ceiling :
>= 8 km
>= 3000ft
5 to 8 km
1000 to 3000 ft
1500m to 5 km
500 to 1000 ft
800 to 1500m
200 to 500 ft
< 800m
< 200 ft
Symbols :   Thunderstorms  Fog  Heavy snow  Heavy precipitations  Wind > 20 kt
SIGMETs :     Misc.  Thunderstorms  Icing  Turbulence  Mountain Waves  Volcanic Ashes






- Airport Elevation : 512 ft
- IATA code : URO


LFOP - Rouen Vallée de Seine

CURRENT METAR :
  • 231600Z AUTO 30007KT 250V320 9999 BKN008 OVC014 03/02 Q0995 BECMG BKN020

EXPIRED METARs :
  • 231530Z AUTO 32009KT 9999 OVC006 03/02 Q0995 BECMG BKN020
  • 231500Z AUTO 31009KT 9999 OVC005 02/02 Q0994 BECMG BKN020
  • 231430Z AUTO 33009KT 9999 BKN005 BKN009 OVC017 02/02 Q0993 BECMG BKN020
  • 231400Z AUTO 35010KT 330V030 9999 -RA OVC005 02/01 Q0993 BECMG BKN020
  • 231330Z AUTO 35010KT 320V030 9999 -RA OVC005 02/01 Q0992 BECMG BKN020

TAF TAF LFOP
Valid from the 23 at 12:00 until the 24 at 12:00 UTC


231100Z 2312/2412 VRB03KT 2000 -SNRA OVC002
BECMG 2313/2317 32010KT 9999 BKN020
BECMG 2321/2324 22005KT
BECMG 2410/2412 1500 -SN OVC002
ATIS : +33 2 35 80 80 34
Met : +33 2 32 86 52 80



MET'MAP, your aeronautical weather chart ! - Copyright ORBIFLY December 2007 - Disclaimer

ORBIFLY MET'MAP TEAM :

Programming & Development : Alexandra Zaïnal
Concept & original design : Baudouin d'Aumeries
Assistance for programming : Marc-Olivier Méhu
Technical & hardware support : Manuel Goepfert

Contact : metmap@orbifly.com




SOURCES & CREDITS :

   NOAA